EZY87XL EGKK-LOWS
Flight info
| Callsign | EZY87XL |
|---|---|
| Flight time | 1h 26m |
| Altitude | 23000 |
| Route | ODVIK Y311 DVR L9 KONAN/N0442F390 UL607 SPI DCT GUBAX DCT BOREP DCT ARMUT T703 ARBAX T108 OSTES T700 BADIT BADIT2R |
| Aircraft | A20N/M-SDE2E3FGHIRWXY/LB1 |
Departure
| Time | 2026-05-06 18:31 |
|---|---|
| Airport | London Gatwick Airport (EGKK) |
Arrival
| Time | 2026-05-06 19:57 |
|---|---|
| Airport | Salzburg Airport (LOWS) |
| Time | Latitude | Longitude | Altitude | Speed | Heading |
|---|---|---|---|---|---|
| 2026-05-06 17:51 | 51.16003 | -0.17077 | 205 ft | 0 kts | 321° |
| 2026-05-06 18:13 | 51.16002 | -0.17076 | 204 ft | 2 kts | 321° |
| 2026-05-06 18:13 | 51.15990 | -0.17059 | 217 ft | 2 kts | 317° |
| 2026-05-06 18:14 | 51.15978 | -0.17041 | 213 ft | 2 kts | 312° |
| 2026-05-06 18:14 | 51.15967 | -0.17020 | 210 ft | 2 kts | 303° |
| 2026-05-06 18:14 | 51.15960 | -0.16997 | 217 ft | 2 kts | 284° |
| 2026-05-06 18:14 | 51.15958 | -0.16971 | 212 ft | 2 kts | 253° |
| 2026-05-06 18:15 | 51.15963 | -0.16953 | 209 ft | 1 kts | 243° |
| 2026-05-06 18:15 | 51.15964 | -0.16951 | 208 ft | 0 kts | 243° |
| 2026-05-06 18:19 | 51.15957 | -0.16972 | 213 ft | 7 kts | 241° |
| 2026-05-06 18:19 | 51.15897 | -0.17058 | 208 ft | 15 kts | 210° |
| 2026-05-06 18:19 | 51.15811 | -0.17159 | 208 ft | 17 kts | 253° |
| 2026-05-06 18:19 | 51.15783 | -0.17361 | 204 ft | 21 kts | 257° |
| 2026-05-06 18:20 | 51.15748 | -0.17609 | 217 ft | 24 kts | 258° |
| 2026-05-06 18:20 | 51.15710 | -0.17879 | 207 ft | 26 kts | 257° |
| 2026-05-06 18:20 | 51.15674 | -0.18150 | 211 ft | 19 kts | 258° |
| 2026-05-06 18:20 | 51.15604 | -0.18230 | 214 ft | 13 kts | 175° |
| 2026-05-06 18:21 | 51.15491 | -0.18193 | 206 ft | 19 kts | 166° |
| 2026-05-06 18:21 | 51.15354 | -0.18137 | 211 ft | 22 kts | 168° |
| 2026-05-06 18:21 | 51.15245 | -0.18101 | 204 ft | 10 kts | 171° |
| 2026-05-06 18:21 | 51.15203 | -0.18174 | 211 ft | 11 kts | 257° |
| 2026-05-06 18:22 | 51.15185 | -0.18331 | 211 ft | 17 kts | 261° |
| 2026-05-06 18:22 | 51.15159 | -0.18531 | 214 ft | 20 kts | 258° |
| 2026-05-06 18:22 | 51.15126 | -0.18768 | 214 ft | 24 kts | 258° |
| 2026-05-06 18:22 | 51.15088 | -0.19048 | 210 ft | 28 kts | 257° |
| 2026-05-06 18:23 | 51.15043 | -0.19375 | 214 ft | 33 kts | 257° |
| 2026-05-06 18:23 | 51.14992 | -0.19746 | 205 ft | 35 kts | 257° |
| 2026-05-06 18:23 | 51.14937 | -0.20140 | 211 ft | 37 kts | 257° |
| 2026-05-06 18:23 | 51.14883 | -0.20535 | 209 ft | 37 kts | 258° |
| 2026-05-06 18:24 | 51.14826 | -0.20942 | 215 ft | 38 kts | 258° |
| 2026-05-06 18:24 | 51.14766 | -0.21317 | 208 ft | 22 kts | 257° |
| 2026-05-06 18:24 | 51.14678 | -0.21381 | 209 ft | 13 kts | 148° |
| 2026-05-06 18:24 | 51.14661 | -0.21359 | 213 ft | 0 kts | 140° |
| 2026-05-06 18:26 | 51.14653 | -0.21350 | 213 ft | 5 kts | 148° |
| 2026-05-06 18:26 | 51.14612 | -0.21328 | 211 ft | 0 kts | 166° |
| 2026-05-06 18:28 | 51.14611 | -0.21328 | 207 ft | 1 kts | 166° |
| 2026-05-06 18:28 | 51.14585 | -0.21316 | 215 ft | 8 kts | 162° |
| 2026-05-06 18:29 | 51.14525 | -0.21236 | 214 ft | 14 kts | 115° |
| 2026-05-06 18:29 | 51.14529 | -0.21104 | 213 ft | 0 kts | 77° |
| 2026-05-06 18:30 | 51.14530 | -0.21101 | 213 ft | 5 kts | 77° |
| 2026-05-06 18:30 | 51.14606 | -0.20555 | 214 ft | 95 kts | 78° |
| 2026-05-06 18:30 | 51.14803 | -0.19142 | 216 ft | 163 kts | 77° |
| 2026-05-06 18:31 | 51.15056 | -0.17281 | 836 ft | 179 kts | 77° |
| 2026-05-06 18:31 | 51.15333 | -0.15224 | 1637 ft | 200 kts | 75° |
| 2026-05-06 18:31 | 51.15652 | -0.12966 | 2478 ft | 216 kts | 74° |
| 2026-05-06 18:31 | 51.15998 | -0.10516 | 3126 ft | 237 kts | 75° |
| 2026-05-06 18:32 | 51.16366 | -0.07872 | 3776 ft | 256 kts | 76° |
| 2026-05-06 18:32 | 51.16752 | -0.05006 | 4727 ft | 265 kts | 79° |
| 2026-05-06 18:32 | 51.16900 | -0.02099 | 5707 ft | 269 kts | 91° |
| 2026-05-06 18:32 | 51.16828 | 0.00927 | 6763 ft | 271 kts | 91° |
| 2026-05-06 18:33 | 51.16765 | 0.03929 | 7618 ft | 279 kts | 91° |
| 2026-05-06 18:33 | 51.16706 | 0.07051 | 8542 ft | 285 kts | 90° |
| 2026-05-06 18:33 | 51.16648 | 0.10243 | 9452 ft | 291 kts | 90° |
| 2026-05-06 18:33 | 51.16588 | 0.13496 | 10364 ft | 296 kts | 90° |
| 2026-05-06 18:34 | 51.16531 | 0.16787 | 11238 ft | 299 kts | 89° |
| 2026-05-06 18:34 | 51.16524 | 0.20131 | 12090 ft | 304 kts | 88° |
| 2026-05-06 18:34 | 51.16545 | 0.23519 | 12947 ft | 308 kts | 88° |
| 2026-05-06 18:34 | 51.16567 | 0.26958 | 13800 ft | 313 kts | 88° |
| 2026-05-06 18:35 | 51.16582 | 0.30447 | 14565 ft | 317 kts | 89° |
| 2026-05-06 18:35 | 51.16591 | 0.33976 | 15329 ft | 320 kts | 89° |
| 2026-05-06 18:35 | 51.16594 | 0.37564 | 16095 ft | 324 kts | 89° |
| 2026-05-06 18:35 | 51.16594 | 0.41133 | 16824 ft | 328 kts | 89° |
| 2026-05-06 18:36 | 51.16592 | 0.44796 | 17441 ft | 335 kts | 89° |
| 2026-05-06 18:36 | 51.16588 | 0.48514 | 17561 ft | 334 kts | 90° |
| 2026-05-06 18:36 | 51.16583 | 0.52153 | 17678 ft | 328 kts | 89° |
| 2026-05-06 18:36 | 51.16581 | 0.55907 | 17816 ft | 351 kts | 89° |
| 2026-05-06 18:37 | 51.16580 | 0.59907 | 18001 ft | 371 kts | 90° |
| 2026-05-06 18:37 | 51.16579 | 0.62668 | 18153 ft | 382 kts | 90° |
| 2026-05-06 18:37 | 51.16574 | 0.66964 | 18657 ft | 389 kts | 90° |
| 2026-05-06 18:37 | 51.16567 | 0.71296 | 19309 ft | 392 kts | 90° |
| 2026-05-06 18:38 | 51.16558 | 0.75664 | 19929 ft | 396 kts | 90° |
| 2026-05-06 18:38 | 51.16547 | 0.80066 | 20567 ft | 399 kts | 90° |
| 2026-05-06 18:38 | 51.16535 | 0.84520 | 21176 ft | 403 kts | 90° |
| 2026-05-06 18:38 | 51.16520 | 0.89012 | 21778 ft | 407 kts | 90° |
| 2026-05-06 18:39 | 51.16504 | 0.93539 | 22381 ft | 411 kts | 90° |
| 2026-05-06 18:39 | 51.16486 | 0.98107 | 22984 ft | 414 kts | 90° |
| 2026-05-06 18:39 | 51.16466 | 1.02716 | 23568 ft | 418 kts | 90° |
| 2026-05-06 18:40 | 51.16419 | 1.12000 | 24575 ft | 423 kts | 90° |
| 2026-05-06 18:40 | 51.16393 | 1.16718 | 25066 ft | 426 kts | 90° |
| 2026-05-06 18:40 | 51.16365 | 1.21450 | 25542 ft | 429 kts | 90° |
| 2026-05-06 18:40 | 51.16335 | 1.26223 | 26009 ft | 432 kts | 90° |
| 2026-05-06 18:41 | 51.16301 | 1.31018 | 26471 ft | 434 kts | 91° |
| 2026-05-06 18:41 | 51.15976 | 1.35815 | 26904 ft | 437 kts | 99° |
| 2026-05-06 18:41 | 51.15487 | 1.40605 | 27345 ft | 440 kts | 99° |
| 2026-05-06 18:41 | 51.14992 | 1.45421 | 27761 ft | 442 kts | 99° |
| 2026-05-06 18:42 | 51.14492 | 1.50269 | 28173 ft | 445 kts | 99° |
| 2026-05-06 18:42 | 51.13986 | 1.55160 | 28572 ft | 448 kts | 99° |
| 2026-05-06 18:42 | 51.13476 | 1.60072 | 28946 ft | 451 kts | 99° |
| 2026-05-06 18:42 | 51.12967 | 1.64953 | 29316 ft | 453 kts | 99° |
| 2026-05-06 18:43 | 51.12449 | 1.69914 | 29690 ft | 455 kts | 100° |
| 2026-05-06 18:43 | 51.11924 | 1.74904 | 30051 ft | 458 kts | 100° |
| 2026-05-06 18:43 | 51.11393 | 1.79910 | 30382 ft | 460 kts | 100° |
| 2026-05-06 18:43 | 51.10857 | 1.84938 | 30698 ft | 462 kts | 100° |
| 2026-05-06 18:44 | 51.10316 | 1.89990 | 31028 ft | 464 kts | 100° |
| 2026-05-06 18:44 | 51.09770 | 1.95060 | 31416 ft | 464 kts | 100° |
| 2026-05-06 18:44 | 51.09223 | 2.00110 | 31837 ft | 463 kts | 100° |
| 2026-05-06 18:44 | 51.08676 | 2.05148 | 32278 ft | 462 kts | 100° |
| 2026-05-06 18:45 | 51.08125 | 2.10194 | 32697 ft | 461 kts | 100° |
| 2026-05-06 18:45 | 51.07576 | 2.15211 | 33108 ft | 460 kts | 99° |
| 2026-05-06 18:45 | 51.07029 | 2.20174 | 33489 ft | 459 kts | 99° |
| 2026-05-06 18:45 | 51.06476 | 2.25178 | 33889 ft | 459 kts | 99° |
| 2026-05-06 18:46 | 51.05922 | 2.30167 | 34201 ft | 458 kts | 99° |
| 2026-05-06 18:46 | 51.05367 | 2.35153 | 34451 ft | 459 kts | 100° |
| 2026-05-06 18:46 | 51.04809 | 2.40151 | 34715 ft | 459 kts | 100° |
| 2026-05-06 18:46 | 51.04247 | 2.45152 | 34986 ft | 459 kts | 100° |
| 2026-05-06 18:47 | 51.03685 | 2.50144 | 35242 ft | 460 kts | 100° |
| 2026-05-06 18:47 | 51.03118 | 2.55151 | 35468 ft | 460 kts | 100° |
| 2026-05-06 18:47 | 51.02549 | 2.60161 | 35713 ft | 461 kts | 100° |
| 2026-05-06 18:47 | 51.01977 | 2.65178 | 35940 ft | 461 kts | 101° |
| 2026-05-06 18:48 | 51.01403 | 2.70186 | 36183 ft | 461 kts | 101° |
| 2026-05-06 18:48 | 51.00827 | 2.75197 | 36415 ft | 461 kts | 101° |
| 2026-05-06 18:48 | 51.00248 | 2.80214 | 36640 ft | 461 kts | 101° |
| 2026-05-06 18:48 | 50.99667 | 2.85230 | 36853 ft | 462 kts | 101° |
| 2026-05-06 18:49 | 50.99092 | 2.90170 | 37066 ft | 462 kts | 101° |
| 2026-05-06 18:49 | 50.98505 | 2.95195 | 37280 ft | 462 kts | 101° |
| 2026-05-06 18:49 | 50.97918 | 3.00200 | 37476 ft | 462 kts | 101° |
| 2026-05-06 18:49 | 50.97327 | 3.05216 | 37675 ft | 462 kts | 101° |
| 2026-05-06 18:50 | 50.96736 | 3.10227 | 37865 ft | 462 kts | 101° |
| 2026-05-06 18:50 | 50.96141 | 3.15243 | 38050 ft | 462 kts | 101° |
| 2026-05-06 18:50 | 50.95543 | 3.20266 | 38233 ft | 462 kts | 101° |
| 2026-05-06 18:50 | 50.94936 | 3.25341 | 38420 ft | 462 kts | 102° |
| 2026-05-06 18:51 | 50.94343 | 3.30283 | 38576 ft | 463 kts | 102° |
| 2026-05-06 18:51 | 50.93738 | 3.35306 | 38716 ft | 462 kts | 102° |
| 2026-05-06 18:51 | 50.93133 | 3.40309 | 38844 ft | 462 kts | 102° |
| 2026-05-06 18:52 | 50.91916 | 3.50325 | 38919 ft | 462 kts | 102° |
| 2026-05-06 18:52 | 50.90692 | 3.60309 | 38915 ft | 461 kts | 102° |
| 2026-05-06 18:53 | 50.89470 | 3.70215 | 38914 ft | 461 kts | 102° |
| 2026-05-06 18:53 | 50.88227 | 3.80205 | 38915 ft | 461 kts | 102° |
| 2026-05-06 18:54 | 50.86979 | 3.90169 | 38917 ft | 461 kts | 102° |
| 2026-05-06 18:54 | 50.85730 | 4.00069 | 38921 ft | 461 kts | 102° |
| 2026-05-06 18:55 | 50.84467 | 4.10005 | 38922 ft | 460 kts | 102° |
| 2026-05-06 18:55 | 50.83195 | 4.19938 | 38927 ft | 460 kts | 103° |
| 2026-05-06 18:56 | 50.81916 | 4.29857 | 38929 ft | 460 kts | 103° |
| 2026-05-06 18:56 | 50.80629 | 4.39769 | 38932 ft | 460 kts | 103° |
| 2026-05-06 18:57 | 50.79331 | 4.49690 | 38930 ft | 460 kts | 103° |
| 2026-05-06 18:57 | 50.78026 | 4.59597 | 38932 ft | 460 kts | 103° |
| 2026-05-06 18:58 | 50.76712 | 4.69508 | 38926 ft | 461 kts | 103° |
| 2026-05-06 18:58 | 50.75396 | 4.79358 | 38923 ft | 461 kts | 103° |
| 2026-05-06 18:59 | 50.74066 | 4.89256 | 38919 ft | 461 kts | 103° |
| 2026-05-06 18:59 | 50.72725 | 4.99156 | 38911 ft | 461 kts | 103° |
| 2026-05-06 19:00 | 50.71376 | 5.09055 | 38908 ft | 461 kts | 103° |
| 2026-05-06 19:00 | 50.70016 | 5.18960 | 38909 ft | 461 kts | 104° |
| 2026-05-06 19:01 | 50.68651 | 5.28838 | 38913 ft | 461 kts | 104° |
| 2026-05-06 19:01 | 50.67278 | 5.38714 | 38911 ft | 462 kts | 104° |
| 2026-05-06 19:02 | 50.65895 | 5.48592 | 38912 ft | 462 kts | 104° |
| 2026-05-06 19:02 | 50.64504 | 5.58473 | 38909 ft | 462 kts | 104° |
| 2026-05-06 19:03 | 50.63104 | 5.68333 | 38910 ft | 462 kts | 104° |
| 2026-05-06 19:03 | 50.61689 | 5.78235 | 38907 ft | 462 kts | 104° |
| 2026-05-06 19:04 | 50.60272 | 5.88095 | 38904 ft | 462 kts | 104° |
| 2026-05-06 19:04 | 50.58853 | 5.97902 | 38901 ft | 462 kts | 104° |
| 2026-05-06 19:05 | 50.57417 | 6.07759 | 38900 ft | 462 kts | 104° |
| 2026-05-06 19:05 | 50.55974 | 6.17612 | 38892 ft | 462 kts | 105° |
| 2026-05-06 19:06 | 50.54521 | 6.27464 | 38887 ft | 462 kts | 105° |
| 2026-05-06 19:06 | 50.53061 | 6.37303 | 38877 ft | 462 kts | 105° |
| 2026-05-06 19:07 | 50.51594 | 6.47122 | 38875 ft | 462 kts | 105° |
| 2026-05-06 19:07 | 50.50120 | 6.56936 | 38871 ft | 462 kts | 105° |
| 2026-05-06 19:08 | 50.48643 | 6.66703 | 38867 ft | 462 kts | 105° |
| 2026-05-06 19:08 | 50.47149 | 6.76522 | 38868 ft | 462 kts | 105° |
| 2026-05-06 19:09 | 50.45648 | 6.86327 | 38862 ft | 462 kts | 105° |
| 2026-05-06 19:09 | 50.44142 | 6.96105 | 38867 ft | 462 kts | 105° |
| 2026-05-06 19:10 | 50.42621 | 7.05926 | 38864 ft | 462 kts | 105° |
| 2026-05-06 19:10 | 50.41092 | 7.15733 | 38858 ft | 463 kts | 106° |
| 2026-05-06 19:11 | 50.39564 | 7.25474 | 38853 ft | 463 kts | 106° |
| 2026-05-06 19:11 | 50.38019 | 7.35270 | 38855 ft | 463 kts | 106° |
| 2026-05-06 19:12 | 50.36465 | 7.45062 | 38852 ft | 463 kts | 106° |
| 2026-05-06 19:12 | 50.34903 | 7.54841 | 38852 ft | 463 kts | 106° |
| 2026-05-06 19:13 | 50.33336 | 7.64604 | 38852 ft | 463 kts | 106° |
| 2026-05-06 19:13 | 50.31771 | 7.74326 | 38844 ft | 463 kts | 107° |
| 2026-05-06 19:14 | 50.30200 | 7.84041 | 38838 ft | 463 kts | 107° |
| 2026-05-06 19:14 | 50.28633 | 7.93824 | 38836 ft | 464 kts | 104° |
| 2026-05-06 19:15 | 50.27554 | 8.03802 | 38839 ft | 465 kts | 101° |
| 2026-05-06 19:15 | 50.26564 | 8.13743 | 38836 ft | 465 kts | 102° |
| 2026-05-06 19:16 | 50.25496 | 8.23712 | 38834 ft | 465 kts | 102° |
| 2026-05-06 19:16 | 50.24396 | 8.33678 | 38837 ft | 465 kts | 102° |
| 2026-05-06 19:17 | 50.23286 | 8.43636 | 38835 ft | 465 kts | 102° |
| 2026-05-06 19:17 | 50.22167 | 8.53601 | 38831 ft | 465 kts | 102° |
| 2026-05-06 19:18 | 50.21048 | 8.63496 | 38830 ft | 465 kts | 102° |
| 2026-05-06 19:18 | 50.19913 | 8.73447 | 38830 ft | 465 kts | 103° |
| 2026-05-06 19:19 | 50.18769 | 8.83396 | 38828 ft | 465 kts | 103° |
| 2026-05-06 19:19 | 50.17624 | 8.93284 | 38833 ft | 465 kts | 103° |
| 2026-05-06 19:20 | 50.16461 | 9.03239 | 38825 ft | 464 kts | 103° |
| 2026-05-06 19:20 | 50.15295 | 9.13147 | 38823 ft | 464 kts | 103° |
| 2026-05-06 19:21 | 50.14121 | 9.23048 | 38827 ft | 464 kts | 103° |
| 2026-05-06 19:21 | 50.12942 | 9.32914 | 38808 ft | 462 kts | 103° |
| 2026-05-06 19:22 | 50.11759 | 9.42741 | 38807 ft | 461 kts | 103° |
| 2026-05-06 19:22 | 50.10768 | 9.50913 | 38808 ft | 461 kts | 103° |
| 2026-05-06 19:23 | 50.09569 | 9.60735 | 38801 ft | 461 kts | 103° |
| 2026-05-06 19:23 | 50.08364 | 9.70546 | 38803 ft | 461 kts | 103° |
| 2026-05-06 19:24 | 50.07146 | 9.80345 | 38788 ft | 461 kts | 105° |
| 2026-05-06 19:24 | 50.04828 | 9.89422 | 38784 ft | 451 kts | 127° |
| 2026-05-06 19:25 | 50.01238 | 9.97399 | 38785 ft | 450 kts | 128° |
| 2026-05-06 19:25 | 49.97604 | 10.05331 | 38775 ft | 451 kts | 129° |
| 2026-05-06 19:26 | 49.93970 | 10.13224 | 38782 ft | 451 kts | 129° |
| 2026-05-06 19:26 | 49.90308 | 10.21146 | 38795 ft | 452 kts | 129° |
| 2026-05-06 19:27 | 49.86629 | 10.29081 | 38798 ft | 453 kts | 129° |
| 2026-05-06 19:27 | 49.82930 | 10.37034 | 38802 ft | 454 kts | 129° |
| 2026-05-06 19:28 | 49.79231 | 10.44966 | 38810 ft | 455 kts | 129° |
| 2026-05-06 19:28 | 49.75519 | 10.52898 | 38807 ft | 455 kts | 129° |
| 2026-05-06 19:29 | 49.71834 | 10.60754 | 38807 ft | 453 kts | 129° |
| 2026-05-06 19:29 | 49.68126 | 10.68632 | 38808 ft | 453 kts | 130° |
| 2026-05-06 19:30 | 49.64419 | 10.76483 | 38815 ft | 452 kts | 130° |
| 2026-05-06 19:30 | 49.60703 | 10.84333 | 38822 ft | 452 kts | 130° |
| 2026-05-06 19:31 | 49.56995 | 10.92143 | 38664 ft | 449 kts | 130° |
| 2026-05-06 19:31 | 49.55155 | 10.96012 | 38212 ft | 447 kts | 130° |
| 2026-05-06 19:31 | 49.51491 | 11.03702 | 36991 ft | 443 kts | 130° |
| 2026-05-06 19:32 | 49.49675 | 11.07515 | 36365 ft | 441 kts | 131° |
| 2026-05-06 19:32 | 49.47857 | 11.11323 | 35741 ft | 439 kts | 131° |
| 2026-05-06 19:32 | 49.46049 | 11.15092 | 35144 ft | 437 kts | 132° |
| 2026-05-06 19:32 | 49.44258 | 11.18822 | 34558 ft | 435 kts | 132° |
| 2026-05-06 19:33 | 49.42466 | 11.22552 | 33964 ft | 433 kts | 132° |
| 2026-05-06 19:33 | 49.40682 | 11.26262 | 33278 ft | 431 kts | 132° |
| 2026-05-06 19:33 | 49.38922 | 11.29909 | 32524 ft | 431 kts | 132° |
| 2026-05-06 19:33 | 49.37127 | 11.33627 | 32207 ft | 424 kts | 132° |
| 2026-05-06 19:34 | 49.35365 | 11.37263 | 32051 ft | 436 kts | 132° |
| 2026-05-06 19:34 | 49.33544 | 11.41013 | 31920 ft | 438 kts | 132° |
| 2026-05-06 19:34 | 49.29910 | 11.48508 | 31824 ft | 437 kts | 132° |
| 2026-05-06 19:35 | 49.26277 | 11.55980 | 31828 ft | 438 kts | 132° |
| 2026-05-06 19:35 | 49.22625 | 11.63466 | 31829 ft | 438 kts | 132° |
| 2026-05-06 19:36 | 49.18972 | 11.70935 | 31829 ft | 438 kts | 132° |
| 2026-05-06 19:36 | 49.15335 | 11.78349 | 31830 ft | 439 kts | 133° |
| 2026-05-06 19:37 | 49.11662 | 11.85815 | 31831 ft | 439 kts | 133° |
| 2026-05-06 19:37 | 49.07990 | 11.93260 | 31672 ft | 436 kts | 133° |
| 2026-05-06 19:38 | 49.06169 | 11.96946 | 31165 ft | 434 kts | 132° |
| 2026-05-06 19:38 | 49.04346 | 12.00623 | 30476 ft | 434 kts | 132° |
| 2026-05-06 19:38 | 49.02524 | 12.04292 | 29786 ft | 432 kts | 131° |
| 2026-05-06 19:38 | 49.00718 | 12.07926 | 29062 ft | 428 kts | 131° |
| 2026-05-06 19:39 | 48.98947 | 12.11486 | 28341 ft | 426 kts | 131° |
| 2026-05-06 19:39 | 48.97167 | 12.15063 | 27658 ft | 422 kts | 131° |
| 2026-05-06 19:39 | 48.95395 | 12.18617 | 26973 ft | 419 kts | 131° |
| 2026-05-06 19:39 | 48.93637 | 12.22139 | 26318 ft | 417 kts | 131° |
| 2026-05-06 19:40 | 48.91889 | 12.25636 | 25686 ft | 413 kts | 130° |
| 2026-05-06 19:40 | 48.90155 | 12.29101 | 25064 ft | 411 kts | 130° |
| 2026-05-06 19:40 | 48.88427 | 12.32550 | 24461 ft | 408 kts | 130° |
| 2026-05-06 19:40 | 48.86714 | 12.35965 | 23860 ft | 405 kts | 130° |
| 2026-05-06 19:41 | 48.85009 | 12.39361 | 23250 ft | 403 kts | 130° |
| 2026-05-06 19:41 | 48.83315 | 12.42730 | 22598 ft | 400 kts | 130° |
| 2026-05-06 19:41 | 48.81636 | 12.46067 | 21972 ft | 396 kts | 130° |
| 2026-05-06 19:41 | 48.79970 | 12.49373 | 21343 ft | 393 kts | 130° |
| 2026-05-06 19:42 | 48.78316 | 12.52651 | 20731 ft | 390 kts | 130° |
| 2026-05-06 19:42 | 48.76690 | 12.55870 | 20143 ft | 387 kts | 130° |
| 2026-05-06 19:42 | 48.75057 | 12.59100 | 19576 ft | 384 kts | 130° |
| 2026-05-06 19:42 | 48.73437 | 12.62302 | 19019 ft | 381 kts | 131° |
| 2026-05-06 19:43 | 48.71735 | 12.65342 | 18452 ft | 374 kts | 141° |
| 2026-05-06 19:43 | 48.69637 | 12.67565 | 17893 ft | 365 kts | 157° |
| 2026-05-06 19:43 | 48.67270 | 12.68775 | 17279 ft | 357 kts | 172° |
| 2026-05-06 19:43 | 48.64829 | 12.69398 | 16709 ft | 353 kts | 173° |
| 2026-05-06 19:44 | 48.62409 | 12.70016 | 16160 ft | 350 kts | 173° |
| 2026-05-06 19:44 | 48.60020 | 12.70632 | 15602 ft | 347 kts | 173° |
| 2026-05-06 19:44 | 48.57647 | 12.71197 | 15052 ft | 344 kts | 174° |
| 2026-05-06 19:44 | 48.55287 | 12.71695 | 14525 ft | 341 kts | 175° |
| 2026-05-06 19:45 | 48.52937 | 12.72177 | 13993 ft | 339 kts | 175° |
| 2026-05-06 19:45 | 48.50640 | 12.72652 | 13445 ft | 336 kts | 175° |
| 2026-05-06 19:45 | 48.48330 | 12.73137 | 12874 ft | 334 kts | 175° |
| 2026-05-06 19:45 | 48.46040 | 12.73623 | 12330 ft | 331 kts | 175° |
| 2026-05-06 19:46 | 48.43765 | 12.74109 | 11778 ft | 328 kts | 175° |
| 2026-05-06 19:46 | 48.41509 | 12.74591 | 11260 ft | 325 kts | 175° |
| 2026-05-06 19:46 | 48.39280 | 12.75121 | 10731 ft | 324 kts | 171° |
| 2026-05-06 19:46 | 48.37087 | 12.75919 | 10226 ft | 322 kts | 169° |
| 2026-05-06 19:47 | 48.34950 | 12.76709 | 10069 ft | 309 kts | 170° |
| 2026-05-06 19:47 | 48.32910 | 12.77462 | 9950 ft | 295 kts | 170° |
| 2026-05-06 19:47 | 48.30958 | 12.78178 | 9840 ft | 282 kts | 171° |
| 2026-05-06 19:47 | 48.29086 | 12.78859 | 9595 ft | 274 kts | 171° |
| 2026-05-06 19:48 | 48.27259 | 12.79520 | 9153 ft | 273 kts | 171° |
| 2026-05-06 19:48 | 48.25412 | 12.80187 | 8781 ft | 270 kts | 171° |
| 2026-05-06 19:48 | 48.23646 | 12.80831 | 8615 ft | 253 kts | 171° |
| 2026-05-06 19:48 | 48.21987 | 12.81438 | 8378 ft | 240 kts | 171° |
| 2026-05-06 19:49 | 48.20364 | 12.82024 | 7931 ft | 240 kts | 172° |
| 2026-05-06 19:49 | 48.18739 | 12.82607 | 7527 ft | 239 kts | 172° |
| 2026-05-06 19:49 | 48.17120 | 12.83190 | 7097 ft | 241 kts | 172° |
| 2026-05-06 19:49 | 48.15488 | 12.83776 | 6699 ft | 241 kts | 172° |
| 2026-05-06 19:50 | 48.13852 | 12.84368 | 6284 ft | 242 kts | 172° |
| 2026-05-06 19:50 | 48.12212 | 12.84962 | 5815 ft | 244 kts | 172° |
| 2026-05-06 19:50 | 48.10550 | 12.85566 | 5385 ft | 245 kts | 173° |
| 2026-05-06 19:50 | 48.08909 | 12.86163 | 4971 ft | 246 kts | 173° |
| 2026-05-06 19:51 | 48.07243 | 12.86767 | 4620 ft | 244 kts | 173° |
| 2026-05-06 19:51 | 48.05593 | 12.87366 | 4246 ft | 243 kts | 173° |
| 2026-05-06 19:51 | 48.03961 | 12.87958 | 4091 ft | 243 kts | 173° |
| 2026-05-06 19:51 | 48.02300 | 12.88550 | 4005 ft | 244 kts | 173° |
| 2026-05-06 19:52 | 48.00661 | 12.89132 | 4000 ft | 240 kts | 176° |
| 2026-05-06 19:52 | 47.99045 | 12.89352 | 4006 ft | 226 kts | 187° |
| 2026-05-06 19:52 | 47.97517 | 12.89391 | 3992 ft | 213 kts | 184° |
| 2026-05-06 19:52 | 47.96106 | 12.89792 | 4009 ft | 205 kts | 169° |
| 2026-05-06 19:53 | 47.94832 | 12.90526 | 3993 ft | 188 kts | 165° |
| 2026-05-06 19:53 | 47.93695 | 12.91272 | 3994 ft | 169 kts | 167° |
| 2026-05-06 19:53 | 47.92635 | 12.91939 | 4018 ft | 166 kts | 167° |
| 2026-05-06 19:53 | 47.91564 | 12.92619 | 3872 ft | 166 kts | 166° |
| 2026-05-06 19:54 | 47.90532 | 12.93281 | 3664 ft | 157 kts | 166° |
| 2026-05-06 19:54 | 47.89546 | 12.93908 | 3463 ft | 151 kts | 167° |
| 2026-05-06 19:54 | 47.88597 | 12.94511 | 3267 ft | 147 kts | 167° |
| 2026-05-06 19:54 | 47.87650 | 12.95110 | 3074 ft | 146 kts | 167° |
| 2026-05-06 19:55 | 47.86731 | 12.95694 | 2877 ft | 145 kts | 166° |
| 2026-05-06 19:55 | 47.85804 | 12.96285 | 2657 ft | 145 kts | 165° |
| 2026-05-06 19:55 | 47.84872 | 12.96875 | 2446 ft | 146 kts | 163° |
| 2026-05-06 19:55 | 47.83953 | 12.97463 | 2222 ft | 139 kts | 159° |
| 2026-05-06 19:56 | 47.83065 | 12.98024 | 2048 ft | 139 kts | 158° |
| 2026-05-06 19:56 | 47.82176 | 12.98588 | 1864 ft | 139 kts | 158° |
| 2026-05-06 19:56 | 47.81295 | 12.99149 | 1682 ft | 139 kts | 157° |
| 2026-05-06 19:56 | 47.80404 | 12.99717 | 1504 ft | 139 kts | 157° |
| 2026-05-06 19:57 | 47.79530 | 13.00268 | 1423 ft | 122 kts | 157° |
| 2026-05-06 19:57 | 47.79027 | 13.00587 | 1421 ft | 42 kts | 156° |
| 2026-05-06 19:57 | 47.78758 | 13.00758 | 1420 ft | 42 kts | 157° |
| 2026-05-06 19:57 | 47.78566 | 13.00825 | 1422 ft | 13 kts | 226° |
| 2026-05-06 19:58 | 47.78528 | 13.00692 | 1421 ft | 14 kts | 262° |
| 2026-05-06 19:58 | 47.78529 | 13.00672 | 1419 ft | 0 kts | 278° |
| 2026-05-06 19:58 | 47.78529 | 13.00670 | 1419 ft | 1 kts | 278° |
| 2026-05-06 19:59 | 47.78537 | 13.00644 | 1422 ft | 4 kts | 307° |
| 2026-05-06 19:59 | 47.78571 | 13.00610 | 1430 ft | 8 kts | 333° |
| 2026-05-06 19:59 | 47.78631 | 13.00570 | 1419 ft | 11 kts | 336° |
| 2026-05-06 19:59 | 47.78713 | 13.00518 | 1422 ft | 14 kts | 336° |
| 2026-05-06 20:00 | 47.78810 | 13.00457 | 1422 ft | 16 kts | 337° |
| 2026-05-06 20:00 | 47.78922 | 13.00386 | 1421 ft | 18 kts | 334° |
| 2026-05-06 20:00 | 47.78956 | 13.00216 | 1419 ft | 19 kts | 272° |
| 2026-05-06 20:00 | 47.79044 | 13.00100 | 1419 ft | 16 kts | 338° |
| 2026-05-06 20:01 | 47.79123 | 13.00043 | 1420 ft | 11 kts | 314° |
| 2026-05-06 20:01 | 47.79144 | 12.99929 | 1419 ft | 5 kts | 281° |
| 2026-05-06 20:01 | 47.79144 | 12.99928 | 1420 ft | 0 kts | 282° |